Time;durP1;ratioP1;P1;durP2;ratioP2;P2;SDS_P1;SDS_P2;PMS_P1;PMS_P2;Temp;Humidity;BMP_temperature;BMP_pressure;BME280_temperature;BME280_humidity;BME280_pressure;Samples;Min_cycle;Max_cycle;Signal;HPM_P1;HPM_P2
2023/04/06 00:01:38;;;;;;;7.13;2.67;;;10.60;99.90;;;;;;5132917;27;20028;-79
2023/04/06 00:04:04;;;;;;;9.57;2.45;;;10.60;99.90;;;;;;5132505;27;20106;-75
2023/04/06 00:06:31;;;;;;;8.52;2.47;;;10.60;99.90;;;;;;5133095;27;20027;-76
2023/04/06 00:08:58;;;;;;;7.63;2.53;;;10.50;99.90;;;;;;5132141;27;20578;-76
2023/04/06 00:11:23;;;;;;;8.48;2.75;;;10.40;99.90;;;;;;5133321;27;20047;-76
2023/04/06 00:13:49;;;;;;;16.95;5.88;;;10.30;99.90;;;;;;5113992;27;20058;-75
2023/04/06 00:16:15;;;;;;;21.15;7.15;;;10.20;99.90;;;;;;5132939;27;20027;-75
2023/04/06 00:18:41;;;;;;;15.45;5.68;;;10.20;99.90;;;;;;5132863;27;20038;-77
2023/04/06 00:21:06;;;;;;;10.27;4.05;;;10.20;99.90;;;;;;5132946;27;20023;-75
2023/04/06 00:23:32;;;;;;;11.85;4.25;;;10.10;99.90;;;;;;5133307;27;20049;-75
2023/04/06 00:25:58;;;;;;;11.05;4.13;;;10.00;99.90;;;;;;5133060;27;20029;-74
2023/04/06 00:28:26;;;;;;;13.73;4.55;;;9.90;99.90;;;;;;5132796;27;20027;-76
2023/04/06 00:30:53;;;;;;;14.02;5.30;;;9.90;99.90;;;;;;5132126;27;20024;-75
2023/04/06 00:33:20;;;;;;;12.85;4.88;;;9.90;99.90;;;;;;5132325;27;20038;-74
2023/04/06 00:35:45;;;;;;;18.58;5.35;;;9.90;99.90;;;;;;5113259;27;20413;-75
2023/04/06 00:38:12;;;;;;;8.88;3.97;;;9.80;99.90;;;;;;5131907;27;20034;-75
2023/04/06 00:40:39;;;;;;;14.77;4.85;;;9.80;99.90;;;;;;5113193;27;20023;-78
2023/04/06 00:43:05;;;;;;;9.30;3.80;;;9.70;99.90;;;;;;5132312;27;20023;-76
2023/04/06 00:45:32;;;;;;;9.27;3.15;;;9.60;99.90;;;;;;5132152;27;20023;-75
2023/04/06 00:47:58;;;;;;;11.60;3.70;;;9.60;99.90;;;;;;5131909;27;20215;-74
2023/04/06 00:50:24;;;;;;;11.38;3.67;;;9.60;99.90;;;;;;5113799;27;20424;-75
2023/04/06 00:52:50;;;;;;;14.60;4.65;;;9.50;99.90;;;;;;5113086;27;20376;-75
2023/04/06 00:55:16;;;;;;;8.20;3.90;;;9.50;99.90;;;;;;5132081;27;20035;-76
2023/04/06 00:57:42;;;;;;;9.20;4.22;;;9.50;99.90;;;;;;5131895;27;20358;-76
2023/04/06 01:00:08;;;;;;;7.68;3.08;;;9.50;99.90;;;;;;5132914;27;20031;-76
2023/04/06 01:02:34;;;;;;;9.02;3.15;;;9.40;99.90;;;;;;5132131;27;20023;-75
2023/04/06 01:05:00;;;;;;;8.98;3.10;;;9.40;99.90;;;;;;5130685;27;20042;-76
2023/04/06 01:07:25;;;;;;;7.72;2.92;;;9.40;99.90;;;;;;5132593;27;20073;-76
2023/04/06 01:09:56;;;;;;;11.55;2.83;;;9.50;99.90;;;;;;5113097;27;20030;-75
2023/04/06 01:12:22;;;;;;;9.30;2.83;;;9.40;99.90;;;;;;5120088;27;20110;-74
2023/04/06 01:14:48;;;;;;;9.10;2.95;;;9.40;99.90;;;;;;5110721;28;20181;-75
2023/04/06 01:17:13;;;;;;;9.60;2.90;;;9.30;99.90;;;;;;5110951;28;20034;-75
2023/04/06 01:19:40;;;;;;;10.82;2.80;;;9.30;99.90;;;;;;5111220;28;20027;-75
2023/04/06 01:22:06;;;;;;;5.63;2.15;;;9.40;99.90;;;;;;5110595;28;20126;-75
2023/04/06 01:24:32;;;;;;;11.55;2.72;;;9.40;99.90;;;;;;5111398;28;20447;-75
2023/04/06 01:26:58;;;;;;;12.57;3.33;;;9.50;99.90;;;;;;5119266;27;20031;-76
2023/04/06 01:29:24;;;;;;;5.70;2.83;;;9.60;99.90;;;;;;5130954;27;20106;-74
2023/04/06 01:31:50;;;;;;;12.60;2.85;;;9.60;99.90;;;;;;5130878;27;20024;-75
2023/04/06 01:34:16;;;;;;;12.82;3.10;;;9.60;99.90;;;;;;5131557;27;20035;-75
2023/04/06 01:36:42;;;;;;;9.50;2.95;;;9.60;99.90;;;;;;5131105;27;20031;-79
2023/04/06 01:39:08;;;;;;;10.65;3.22;;;9.60;99.90;;;;;;5131200;27;20027;-75
2023/04/06 01:41:34;;;;;;;10.98;2.97;;;9.60;99.90;;;;;;5130857;27;20069;-75
2023/04/06 01:44:00;;;;;;;9.75;2.30;;;9.60;99.90;;;;;;5130845;27;20027;-75
2023/04/06 01:46:26;;;;;;;9.88;3.25;;;9.60;99.90;;;;;;5131253;28;20119;-75
2023/04/06 01:48:52;;;;;;;10.18;2.92;;;9.60;99.90;;;;;;5130432;28;20050;-75
2023/04/06 01:51:17;;;;;;;14.27;3.17;;;9.60;99.90;;;;;;5131250;28;20027;-75
2023/04/06 01:53:43;;;;;;;13.45;3.33;;;9.60;99.90;;;;;;5112329;28;20372;-78
2023/04/06 01:56:09;;;;;;;11.43;3.13;;;9.60;99.90;;;;;;5130797;28;20072;-75
2023/04/06 01:58:35;;;;;;;7.55;2.78;;;9.60;99.90;;;;;;5131356;28;20027;-75
2023/04/06 02:01:01;;;;;;;11.35;2.90;;;9.60;99.90;;;;;;5130299;28;20046;-75
2023/04/06 02:03:27;;;;;;;10.52;2.80;;;9.60;99.90;;;;;;5131222;28;20114;-74
2023/04/06 02:05:52;;;;;;;10.02;2.78;;;9.60;99.90;;;;;;5095072;28;20027;-74
2023/04/06 02:08:18;;;;;;;15.70;3.92;;;9.50;99.90;;;;;;5130861;28;20351;-74
2023/04/06 02:10:44;;;;;;;8.27;2.70;;;9.50;99.90;;;;;;5131290;28;20388;-77
2023/04/06 02:13:09;;;;;;;9.25;3.00;;;9.60;99.90;;;;;;5130622;28;20042;-75
2023/04/06 02:15:35;;;;;;;10.18;3.08;;;9.60;99.90;;;;;;5110712;28;20038;-74
2023/04/06 02:18:01;;;;;;;11.95;2.97;;;9.60;99.90;;;;;;5113718;28;20326;-75
2023/04/06 02:20:27;;;;;;;12.48;3.35;;;9.60;99.90;;;;;;5113732;28;20100;-75
2023/04/06 02:22:52;;;;;;;8.52;3.17;;;9.60;99.90;;;;;;5113513;28;20134;-76
2023/04/06 02:25:18;;;;;;;10.77;3.30;;;9.50;99.90;;;;;;5114125;28;20032;-75
2023/04/06 02:27:44;;;;;;;14.07;3.42;;;9.50;99.90;;;;;;5095810;28;20441;-75
2023/04/06 02:30:10;;;;;;;8.93;2.40;;;9.40;99.90;;;;;;5113450;28;20066;-75
2023/04/06 02:32:36;;;;;;;10.38;3.35;;;9.40;99.90;;;;;;5114371;28;20028;-75
2023/04/06 02:35:01;;;;;;;18.35;3.53;;;9.40;99.90;;;;;;5113227;28;20035;-75
2023/04/06 02:37:27;;;;;;;10.65;3.38;;;9.40;99.90;;;;;;5114273;28;20024;-75
2023/04/06 02:39:53;;;;;;;10.27;2.85;;;9.40;99.90;;;;;;5095075;28;20024;-75
2023/04/06 02:42:19;;;;;;;13.82;3.10;;;9.40;99.90;;;;;;5114053;28;20035;-75
2023/04/06 02:44:45;;;;;;;14.65;3.10;;;9.40;99.90;;;;;;5114119;28;20028;-75
2023/04/06 02:47:10;;;;;;;11.00;2.70;;;9.40;99.90;;;;;;5113093;28;20102;-75
2023/04/06 02:49:36;;;;;;;12.32;3.17;;;9.40;99.90;;;;;;5113733;28;20110;-75
2023/04/06 02:52:03;;;;;;;11.27;3.13;;;9.40;99.90;;;;;;5113078;28;20027;-75
2023/04/06 02:54:29;;;;;;;12.95;3.15;;;9.40;99.90;;;;;;5113693;28;20097;-74
2023/04/06 02:56:54;;;;;;;13.27;3.08;;;9.40;99.90;;;;;;5094504;28;20047;-75
2023/04/06 02:59:20;;;;;;;10.13;3.67;;;9.40;99.90;;;;;;5113487;28;20077;-75
2023/04/06 03:01:46;;;;;;;13.20;2.95;;;9.40;99.90;;;;;;5095098;28;20035;-75
2023/04/06 03:04:12;;;;;;;8.40;2.85;;;9.30;99.90;;;;;;5094773;28;20031;-76
2023/04/06 03:06:38;;;;;;;11.15;3.47;;;9.30;99.90;;;;;;5113720;28;20069;-76
2023/04/06 03:09:03;;;;;;;8.25;3.17;;;9.40;99.90;;;;;;5112925;28;20055;-76
2023/04/06 03:11:29;;;;;;;16.23;3.58;;;9.30;99.90;;;;;;5125457;27;20413;-76
2023/04/06 03:13:55;;;;;;;9.90;3.47;;;9.30;99.90;;;;;;5114788;27;20075;-76
2023/04/06 03:16:21;;;;;;;7.93;3.50;;;9.30;99.90;;;;;;5134107;27;20110;-75
2023/04/06 03:18:47;;;;;;;10.30;3.33;;;9.30;99.90;;;;;;5133771;27;20027;-75
2023/04/06 03:21:15;;;;;;;12.20;3.85;;;9.30;99.90;;;;;;5133304;27;20047;-76
2023/04/06 03:23:41;;;;;;;13.95;3.65;;;9.30;99.90;;;;;;5115286;27;20054;-75
2023/04/06 03:26:08;;;;;;;9.70;3.35;;;9.20;99.90;;;;;;5133035;27;20054;-75
2023/04/06 03:28:34;;;;;;;10.05;3.90;;;9.20;99.90;;;;;;5132773;27;20027;-75
2023/04/06 03:31:00;;;;;;;15.80;3.50;;;9.20;99.90;;;;;;5133409;27;20019;-75
2023/04/06 03:33:27;;;;;;;9.85;3.75;;;9.20;99.90;;;;;;5134183;27;20031;-75
2023/04/06 03:35:53;;;;;;;12.35;3.63;;;9.20;99.90;;;;;;5132879;27;20425;-79
2023/04/06 03:38:19;;;;;;;14.05;4.60;;;9.20;99.90;;;;;;5134034;27;20031;-75
2023/04/06 03:40:45;;;;;;;11.10;3.90;;;9.20;99.90;;;;;;5133667;27;20336;-75
2023/04/06 03:43:11;;;;;;;13.20;3.78;;;9.10;99.90;;;;;;5133128;27;20023;-75
2023/04/06 03:45:37;;;;;;;10.38;3.88;;;9.10;99.90;;;;;;5133779;27;20433;-76
2023/04/06 03:48:03;;;;;;;14.07;4.07;;;9.00;99.90;;;;;;5133150;27;20035;-76
2023/04/06 03:50:29;;;;;;;9.70;3.85;;;9.10;99.90;;;;;;5133958;27;20122;-74
2023/04/06 03:52:55;;;;;;;18.77;4.13;;;9.10;99.90;;;;;;5114472;27;20147;-77
2023/04/06 03:55:21;;;;;;;9.23;3.22;;;9.10;99.90;;;;;;5133385;27;20023;-76
2023/04/06 03:57:46;;;;;;;13.23;3.60;;;9.00;99.90;;;;;;5133361;27;20019;-76
2023/04/06 04:00:12;;;;;;;16.80;3.88;;;9.00;99.90;;;;;;5132437;27;20088;-76
2023/04/06 04:02:38;;;;;;;9.75;3.00;;;9.10;99.90;;;;;;5133085;27;20068;-75
2023/04/06 04:05:05;;;;;;;8.00;2.80;;;9.00;99.90;;;;;;5132638;27;20038;-76
2023/04/06 04:07:30;;;;;;;9.63;3.30;;;9.10;99.90;;;;;;5133315;27;20464;-76
2023/04/06 04:09:57;;;;;;;13.48;3.53;;;9.10;99.90;;;;;;5113953;27;20068;-79
2023/04/06 04:12:22;;;;;;;12.77;2.90;;;9.10;99.90;;;;;;5132953;27;20080;-78
2023/04/06 04:14:48;;;;;;;14.18;3.08;;;9.10;99.90;;;;;;5114326;27;20344;-79
2023/04/06 04:17:14;;;;;;;9.05;2.90;;;8.90;99.90;;;;;;5132407;27;20022;-77
2023/04/06 04:19:40;;;;;;;11.90;2.70;;;8.80;99.90;;;;;;5132957;27;20024;-76
2023/04/06 04:22:06;;;;;;;10.20;3.20;;;8.80;99.90;;;;;;5113777;27;20070;-76
2023/04/06 04:24:32;;;;;;;11.60;2.63;;;8.70;99.90;;;;;;5133117;27;20045;-77
2023/04/06 04:26:58;;;;;;;10.52;2.63;;;8.70;99.90;;;;;;5132536;27;20027;-76
2023/04/06 04:29:23;;;;;;;8.13;2.50;;;8.70;99.90;;;;;;5132664;27;20023;-76
2023/04/06 04:31:50;;;;;;;10.10;2.40;;;8.70;99.90;;;;;;5132895;27;20024;-76
2023/04/06 04:34:16;;;;;;;9.25;2.58;;;8.70;99.90;;;;;;5132250;27;20110;-76
2023/04/06 04:36:42;;;;;;;12.77;3.63;;;8.60;99.90;;;;;;5133151;27;20161;-76
2023/04/06 04:39:08;;;;;;;8.20;2.80;;;8.60;99.90;;;;;;5132463;27;20015;-76
2023/04/06 04:41:34;;;;;;;7.13;2.35;;;8.60;99.90;;;;;;5133290;27;20080;-75
2023/04/06 04:43:59;;;;;;;7.65;1.90;;;8.60;99.90;;;;;;5132738;27;20049;-76
2023/04/06 04:46:25;;;;;;;8.40;2.60;;;8.50;99.90;;;;;;5133605;27;20031;-75
2023/04/06 04:48:51;;;;;;;17.17;3.20;;;8.50;99.90;;;;;;5133547;27;20436;-75
2023/04/06 04:51:17;;;;;;;9.73;2.92;;;8.50;99.90;;;;;;5131877;27;20103;-75
2023/04/06 04:53:42;;;;;;;10.40;2.67;;;8.50;99.90;;;;;;5132695;27;20029;-75
2023/04/06 04:56:08;;;;;;;10.35;3.22;;;8.50;99.90;;;;;;5132043;27;20121;-76
2023/04/06 04:58:34;;;;;;;14.77;3.67;;;8.60;99.90;;;;;;5132018;27;20549;-75
2023/04/06 05:01:00;;;;;;;8.30;2.88;;;8.60;99.90;;;;;;5131229;27;20023;-76
2023/04/06 05:03:26;;;;;;;14.25;3.00;;;8.60;99.90;;;;;;5131914;27;20023;-75
2023/04/06 05:05:52;;;;;;;18.23;3.33;;;8.60;99.90;;;;;;5132321;27;20081;-75
2023/04/06 05:08:18;;;;;;;11.20;2.92;;;8.60;99.90;;;;;;5131196;27;20101;-76
2023/04/06 05:10:44;;;;;;;11.98;2.80;;;8.60;99.90;;;;;;5131837;27;20023;-75
2023/04/06 05:13:11;;;;;;;8.30;2.50;;;8.60;99.90;;;;;;5131457;27;20390;-75
2023/04/06 05:15:40;;;;;;;10.50;3.03;;;8.50;99.90;;;;;;5131785;27;20352;-74
2023/04/06 05:18:07;;;;;;;12.88;3.13;;;8.50;99.90;;;;;;5131412;27;20034;-75
2023/04/06 05:20:33;;;;;;;14.07;3.30;;;8.50;99.90;;;;;;5131867;27;20063;-75
2023/04/06 05:22:58;;;;;;;10.93;3.38;;;8.50;99.90;;;;;;5131236;27;20131;-78
2023/04/06 05:25:24;;;;;;;9.48;3.38;;;8.50;99.90;;;;;;5131217;27;20123;-75
2023/04/06 05:27:50;;;;;;;16.98;3.92;;;8.60;99.90;;;;;;5131749;27;20156;-75
2023/04/06 05:30:16;;;;;;;13.70;4.00;;;8.60;99.90;;;;;;5130637;27;20074;-75
2023/04/06 05:32:44;;;;;;;13.48;3.45;;;8.60;99.90;;;;;;5131562;27;20039;-76
2023/04/06 05:35:10;;;;;;;14.05;3.45;;;8.60;99.90;;;;;;5130617;27;20041;-77
2023/04/06 05:37:36;;;;;;;11.68;3.47;;;8.60;99.90;;;;;;5131474;27;20035;-75
2023/04/06 05:40:02;;;;;;;9.48;3.72;;;8.60;99.90;;;;;;5130961;27;20030;-79
2023/04/06 05:42:28;;;;;;;13.90;3.63;;;8.60;99.90;;;;;;5131493;27;20023;-76
2023/04/06 05:44:55;;;;;;;14.85;3.35;;;8.60;99.90;;;;;;5131136;27;20041;-76
2023/04/06 05:47:20;;;;;;;17.38;4.60;;;8.60;99.90;;;;;;5112236;28;20608;-76
2023/04/06 05:49:46;;;;;;;10.13;3.08;;;8.60;99.90;;;;;;5130599;27;20023;-76
2023/04/06 05:52:12;;;;;;;16.45;4.30;;;8.60;99.90;;;;;;5130787;28;20035;-77
2023/04/06 05:54:37;;;;;;;15.10;4.68;;;8.60;99.90;;;;;;5131292;28;20038;-77
2023/04/06 05:57:03;;;;;;;12.70;4.03;;;8.60;99.90;;;;;;5130440;28;20110;-77
2023/04/06 05:59:32;;;;;;;12.32;4.18;;;8.60;99.90;;;;;;5130799;28;20023;-76
2023/04/06 06:01:58;;;;;;;15.25;4.00;;;8.70;99.90;;;;;;5131535;28;20051;-77
2023/04/06 06:04:24;;;;;;;12.95;4.03;;;8.60;99.90;;;;;;5130675;28;20475;-76
2023/04/06 06:06:49;;;;;;;16.63;4.32;;;8.60;99.90;;;;;;5131163;28;20130;-75
2023/04/06 06:09:15;;;;;;;14.25;3.63;;;8.70;99.90;;;;;;5130995;28;20059;-76
2023/04/06 06:11:41;;;;;;;13.20;5.20;;;8.60;99.90;;;;;;5131264;28;20031;-76
2023/04/06 06:14:07;;;;;;;17.42;4.32;;;8.60;99.90;;;;;;5130539;28;20048;-75
2023/04/06 06:16:33;;;;;;;13.82;4.13;;;8.60;99.90;;;;;;5131021;28;20027;-75
2023/04/06 06:18:59;;;;;;;13.73;4.70;;;8.60;99.90;;;;;;5131068;28;20029;-75
2023/04/06 06:21:25;;;;;;;12.52;4.32;;;8.70;99.90;;;;;;5130944;28;20370;-75
2023/04/06 06:23:51;;;;;;;15.77;4.50;;;8.60;99.90;;;;;;5112717;28;20043;-76
2023/04/06 06:26:17;;;;;;;14.32;4.30;;;8.60;99.90;;;;;;5130248;28;20375;-77
2023/04/06 06:28:42;;;;;;;19.10;4.43;;;8.70;99.90;;;;;;5130597;28;20027;-76
2023/04/06 06:31:08;;;;;;;13.98;4.50;;;8.60;99.90;;;;;;5129985;28;20031;-77
2023/04/06 06:33:34;;;;;;;15.07;4.30;;;8.70;99.90;;;;;;5131199;28;20034;-76
2023/04/06 06:36:00;;;;;;;17.77;4.50;;;8.70;99.90;;;;;;5130192;28;20027;-77
2023/04/06 06:38:25;;;;;;;10.90;3.92;;;8.60;99.90;;;;;;5130190;28;20073;-77
2023/04/06 06:40:51;;;;;;;12.15;3.58;;;8.60;99.90;;;;;;5130479;28;20034;-76
2023/04/06 06:43:17;;;;;;;10.88;3.50;;;8.60;99.90;;;;;;5111881;28;20068;-77
2023/04/06 06:45:44;;;;;;;7.28;3.00;;;8.70;99.90;;;;;;5130351;28;20027;-77
2023/04/06 06:48:09;;;;;;;10.65;2.70;;;8.70;99.90;;;;;;5130045;28;20099;-77
2023/04/06 06:50:35;;;;;;;11.85;3.05;;;8.70;99.90;;;;;;5111733;28;20517;-77
2023/04/06 06:53:01;;;;;;;11.43;3.17;;;8.70;99.90;;;;;;5130622;28;20355;-75
2023/04/06 06:55:27;;;;;;;11.38;3.63;;;8.70;99.90;;;;;;5129775;28;20110;-75
2023/04/06 06:57:53;;;;;;;11.15;3.72;;;8.80;99.90;;;;;;5112086;28;20023;-76
2023/04/06 07:00:22;;;;;;;10.45;4.18;;;8.70;99.90;;;;;;5129694;28;20035;-76
2023/04/06 07:02:48;;;;;;;11.65;3.63;;;8.70;99.90;;;;;;5132083;27;20523;-76
2023/04/06 07:05:15;;;;;;;9.43;3.50;;;8.90;99.90;;;;;;5133668;27;20117;-74
2023/04/06 07:07:41;;;;;;;9.77;3.40;;;8.90;99.90;;;;;;5134023;27;20027;-75
2023/04/06 07:10:07;;;;;;;9.27;3.22;;;9.00;99.90;;;;;;5133833;27;20080;-78
2023/04/06 07:12:33;;;;;;;7.38;2.63;;;9.10;99.90;;;;;;5134330;27;20461;-75
2023/04/06 07:14:59;;;;;;;10.23;2.92;;;9.00;99.90;;;;;;5133731;27;20031;-75
2023/04/06 07:17:25;;;;;;;8.25;2.83;;;9.00;99.90;;;;;;5133474;27;20038;-76
2023/04/06 07:19:50;;;;;;;7.70;2.60;;;9.00;99.90;;;;;;5133590;27;20023;-75
2023/04/06 07:22:16;;;;;;;8.18;2.42;;;9.00;99.90;;;;;;5133342;27;20047;-75
2023/04/06 07:24:42;;;;;;;7.72;2.13;;;9.00;99.90;;;;;;5134533;27;20035;-75
2023/04/06 07:27:08;;;;;;;6.28;2.60;;;8.90;99.90;;;;;;5133372;27;20034;-78
2023/04/06 07:29:33;;;;;;;4.65;2.00;;;9.00;99.90;;;;;;5115037;27;20027;-75
2023/04/06 07:31:59;;;;;;;7.43;2.40;;;9.00;99.90;;;;;;5133537;27;20043;-76
2023/04/06 07:34:25;;;;;;;7.72;2.78;;;9.00;99.90;;;;;;5114790;27;20035;-77
2023/04/06 07:36:52;;;;;;;6.00;2.70;;;8.90;99.90;;;;;;5133771;27;20024;-76
2023/04/06 07:39:18;;;;;;;9.30;2.92;;;8.90;99.90;;;;;;5133105;27;20027;-76
2023/04/06 07:41:44;;;;;;;6.35;2.20;;;8.90;99.90;;;;;;5115430;27;20412;-76
2023/04/06 07:44:09;;;;;;;6.68;2.28;;;8.90;99.90;;;;;;5133484;27;20028;-79
2023/04/06 07:46:36;;;;;;;4.28;1.80;;;8.90;99.90;;;;;;5133797;27;20448;-76
2023/04/06 07:49:02;;;;;;;5.22;2.28;;;8.90;99.90;;;;;;5133634;27;20058;-75
2023/04/06 07:51:28;;;;;;;9.18;2.63;;;8.90;99.90;;;;;;5132892;27;20080;-76
2023/04/06 07:53:53;;;;;;;4.35;2.55;;;9.00;99.90;;;;;;5114803;27;20023;-75
2023/04/06 07:56:20;;;;;;;5.80;1.90;;;9.00;99.90;;;;;;5114498;27;20035;-77
2023/04/06 07:58:46;;;;;;;7.40;2.13;;;9.00;99.90;;;;;;5133643;27;20066;-74
2023/04/06 08:01:12;;;;;;;6.35;1.83;;;9.00;99.90;;;;;;5133105;27;20046;-78
2023/04/06 08:03:38;;;;;;;4.65;2.33;;;9.00;99.90;;;;;;5133556;27;20042;-74
2023/04/06 08:06:04;;;;;;;7.20;2.03;;;9.10;99.90;;;;;;5133723;27;20393;-75
2023/04/06 08:08:30;;;;;;;6.45;1.88;;;9.20;99.90;;;;;;5132415;27;20769;-76
2023/04/06 08:10:56;;;;;;;5.43;1.90;;;9.20;99.90;;;;;;5114747;27;20027;-75
2023/04/06 08:13:22;;;;;;;8.43;2.20;;;9.30;99.90;;;;;;5131964;27;20376;-76
2023/04/06 08:15:48;;;;;;;5.45;2.03;;;9.30;99.90;;;;;;5114430;27;20095;-75
2023/04/06 08:18:13;;;;;;;6.07;2.05;;;9.40;99.90;;;;;;5113905;27;20027;-76
2023/04/06 08:20:39;;;;;;;5.25;2.28;;;9.40;99.90;;;;;;5132911;27;20034;-75
2023/04/06 08:23:06;;;;;;;7.15;2.20;;;9.40;99.90;;;;;;5133943;27;20055;-75
2023/04/06 08:25:36;;;;;;;5.93;2.05;;;9.50;99.90;;;;;;5133354;27;20103;-76
2023/04/06 08:28:03;;;;;;;5.03;1.88;;;9.50;99.90;;;;;;5134306;27;20023;-75
2023/04/06 08:30:29;;;;;;;5.63;2.03;;;9.50;99.90;;;;;;5133850;27;20023;-75
2023/04/06 08:32:55;;;;;;;6.47;2.53;;;9.60;99.90;;;;;;5134119;27;20019;-73
2023/04/06 08:35:21;;;;;;;8.23;2.08;;;9.70;99.90;;;;;;5133368;27;20030;-75
2023/04/06 08:37:47;;;;;;;8.80;2.40;;;9.80;99.90;;;;;;5135281;27;20413;-75
2023/04/06 08:40:13;;;;;;;6.88;2.65;;;9.90;99.90;;;;;;5133833;27;20023;-79
2023/04/06 08:42:41;;;;;;;6.90;2.72;;;9.90;99.90;;;;;;5132541;27;20023;-75
2023/04/06 08:45:09;;;;;;;6.53;2.10;;;10.10;99.90;;;;;;5132278;27;20041;-74
2023/04/06 08:47:36;;;;;;;6.50;1.95;;;10.20;99.90;;;;;;5132181;27;20031;-74
2023/04/06 08:50:04;;;;;;;6.43;1.50;;;10.10;99.90;;;;;;5132102;27;20027;-74
2023/04/06 08:52:32;;;;;;;6.95;2.15;;;10.10;99.90;;;;;;5132088;27;20019;-75
2023/04/06 08:54:58;;;;;;;3.60;1.20;;;10.10;99.90;;;;;;5132006;27;20122;-74
2023/04/06 08:57:25;;;;;;;7.03;1.83;;;10.10;99.90;;;;;;5131523;27;20031;-75
2023/04/06 08:59:51;;;;;;;3.78;1.42;;;10.20;99.90;;;;;;5131931;27;20122;-75
2023/04/06 09:02:19;;;;;;;6.00;1.50;;;10.20;99.90;;;;;;5130659;27;20019;-76
2023/04/06 09:04:53;;;;;;;5.05;1.58;;;10.30;99.90;;;;;;5132005;27;20083;-75
2023/04/06 09:07:19;;;;;;;5.15;1.67;;;10.40;99.90;;;;;;5131418;27;20333;-74
2023/04/06 09:09:48;;;;;;;5.05;1.70;;;10.40;99.90;;;;;;5131468;27;20139;-75
2023/04/06 09:12:31;;;;;;;6.00;1.52;;;10.40;99.90;;;;;;5131587;27;20030;-76
2023/04/06 09:14:58;;;;;;;6.35;1.70;;;10.50;99.90;;;;;;5131296;27;20031;-74
2023/04/06 09:17:25;;;;;;;5.50;1.75;;;10.40;99.90;;;;;;5130424;27;20035;-75
2023/04/06 09:19:51;;;;;;;5.95;2.05;;;10.40;99.90;;;;;;5131308;27;20023;-76
2023/04/06 09:22:18;;;;;;;5.57;1.65;;;10.50;99.90;;;;;;5130536;27;20096;-76
2023/04/06 09:24:46;;;;;;;6.43;1.63;;;10.50;99.90;;;;;;5112131;28;20380;-75
2023/04/06 09:27:13;;;;;;;8.73;2.42;;;10.60;99.90;;;;;;5132237;27;20038;-75
2023/04/06 09:29:39;;;;;;;6.13;1.83;;;10.70;99.90;;;;;;5130999;27;20023;-74
2023/04/06 09:32:06;;;;;;;5.63;1.38;;;10.80;99.90;;;;;;5112313;27;20042;-75
2023/04/06 09:34:33;;;;;;;4.03;1.58;;;10.80;99.90;;;;;;5130251;27;20033;-75
2023/04/06 09:36:59;;;;;;;7.68;1.60;;;10.70;99.90;;;;;;5131839;27;20430;-74
2023/04/06 09:39:25;;;;;;;8.30;1.55;;;10.70;99.90;;;;;;5130193;27;20054;-74
2023/04/06 09:41:52;;;;;;;5.03;1.40;;;10.80;99.90;;;;;;5112602;27;20111;-75
2023/04/06 09:44:19;;;;;;;6.00;1.25;;;10.80;99.90;;;;;;5130906;27;20035;-75
2023/04/06 09:46:46;;;;;;;6.50;1.52;;;10.70;99.90;;;;;;5133376;27;20023;-75
2023/04/06 09:49:13;;;;;;;5.63;1.63;;;10.80;99.90;;;;;;5112620;28;20023;-75
2023/04/06 09:51:39;;;;;;;3.65;1.10;;;10.80;99.90;;;;;;5111361;28;20106;-74
2023/04/06 09:54:07;;;;;;;5.00;0.90;;;10.80;99.90;;;;;;5111233;28;20348;-75
2023/04/06 09:56:58;;;;;;;6.90;1.30;;;10.80;99.90;;;;;;5091672;28;20039;-74
2023/04/06 09:59:49;;;;;;;6.30;1.45;;;10.80;99.90;;;;;;5110234;28;20418;-75
2023/04/06 10:02:40;;;;;;;6.65;1.98;;;10.80;99.90;;;;;;5110526;28;20024;-74
2023/04/06 10:05:16;;;;;;;7.13;1.70;;;10.90;99.90;;;;;;5111288;28;20035;-74
2023/04/06 10:07:42;;;;;;;8.43;1.48;;;10.80;99.90;;;;;;5110798;28;20035;-75
2023/04/06 10:10:09;;;;;;;4.88;1.25;;;10.70;99.90;;;;;;5110531;28;20035;-75
2023/04/06 10:12:38;;;;;;;7.95;1.52;;;10.60;99.90;;;;;;5110234;28;20028;-75
2023/04/06 10:15:03;;;;;;;7.07;1.73;;;10.50;99.90;;;;;;5110482;28;20038;-74
2023/04/06 10:17:29;;;;;;;5.95;1.38;;;10.60;99.90;;;;;;5091866;28;20102;-75
2023/04/06 10:20:10;;;;;;;6.75;1.58;;;10.70;99.90;;;;;;5092334;28;20088;-75
2023/04/06 10:22:54;;;;;;;5.75;1.23;;;11.00;99.90;;;;;;5109690;28;20075;-76
2023/04/06 10:25:30;;;;;;;3.83;1.08;;;11.10;99.90;;;;;;5110380;28;20306;-79
2023/04/06 10:28:14;;;;;;;4.85;1.00;;;11.30;99.90;;;;;;5112173;28;20437;-75
2023/04/06 10:30:43;;;;;;;4.88;1.25;;;11.30;99.90;;;;;;5110313;28;20611;-75
2023/04/06 10:33:18;;;;;;;5.30;1.00;;;11.20;99.90;;;;;;5112902;28;20081;-74
2023/04/06 10:35:45;;;;;;;5.60;1.42;;;11.20;99.90;;;;;;5110339;28;20034;-73
2023/04/06 10:38:13;;;;;;;7.68;1.20;;;11.30;99.90;;;;;;5116066;28;20076;-74
2023/04/06 10:40:40;;;;;;;8.95;1.55;;;11.40;99.90;;;;;;5114668;28;20619;-73
2023/04/06 10:43:10;;;;;;;8.70;1.10;;;11.50;99.90;;;;;;5114320;28;20024;-74
2023/04/06 10:45:36;;;;;;;10.60;1.40;;;11.30;99.90;;;;;;5114524;28;20051;-74
2023/04/06 10:48:18;;;;;;;5.32;1.20;;;11.20;99.90;;;;;;5114062;28;20058;-74
2023/04/06 10:50:47;;;;;;;7.38;1.27;;;11.20;99.90;;;;;;5114126;28;20131;-74
2023/04/06 10:53:27;;;;;;;7.45;1.33;;;11.40;99.90;;;;;;5114133;28;20430;-74
2023/04/06 10:55:55;;;;;;;7.15;1.30;;;11.60;99.90;;;;;;5114136;28;20343;-74
2023/04/06 10:58:25;;;;;;;4.25;0.88;;;11.60;99.90;;;;;;5113797;28;20032;-76
2023/04/06 11:00:51;;;;;;;6.18;1.35;;;11.50;99.90;;;;;;5114341;28;20020;-74
2023/04/06 11:03:17;;;;;;;6.15;1.30;;;11.30;99.90;;;;;;5114113;28;20028;-74
2023/04/06 11:05:48;;;;;;;6.15;1.20;;;11.20;99.90;;;;;;5113842;28;20040;-74
2023/04/06 11:08:28;;;;;;;5.05;1.30;;;11.10;99.90;;;;;;5095434;28;20114;-75
2023/04/06 11:11:15;;;;;;;5.95;1.02;;;11.20;99.90;;;;;;5113707;28;20070;-75
2023/04/06 11:13:50;;;;;;;4.63;1.35;;;11.40;99.90;;;;;;5113517;28;20398;-75
2023/04/06 11:16:18;;;;;;;7.32;1.40;;;11.50;99.90;;;;;;5113034;28;20024;-75
2023/04/06 11:18:55;;;;;;;5.03;1.50;;;11.60;99.90;;;;;;5113445;28;20035;-75
2023/04/06 11:21:43;;;;;;;8.93;1.80;;;11.60;99.90;;;;;;5112805;28;20096;-74
2023/04/06 11:24:12;;;;;;;10.13;2.22;;;11.50;99.90;;;;;;5094826;28;20062;-75
2023/04/06 11:26:48;;;;;;;6.35;1.45;;;11.50;99.90;;;;;;5094396;28;20073;-74
2023/04/06 11:29:16;;;;;;;6.75;1.23;;;11.60;99.90;;;;;;5113465;28;20397;-75
2023/04/06 11:31:46;;;;;;;5.45;1.15;;;11.70;99.90;;;;;;5118560;27;20080;-74
2023/04/06 11:34:15;;;;;;;6.30;1.33;;;11.70;99.90;;;;;;5133038;27;20468;-74
2023/04/06 11:36:41;;;;;;;4.93;1.23;;;11.90;99.90;;;;;;5132814;27;20433;-74
2023/04/06 11:39:07;;;;;;;8.00;1.45;;;11.70;99.90;;;;;;5133705;27;20031;-74
2023/04/06 11:41:33;;;;;;;5.63;1.48;;;11.60;99.90;;;;;;5132914;27;20023;-74
2023/04/06 11:44:02;;;;;;;5.32;1.10;;;11.70;99.90;;;;;;5133738;27;20459;-75
2023/04/06 11:46:28;;;;;;;3.78;0.82;;;11.60;99.90;;;;;;5133058;27;20446;-76
2023/04/06 11:49:01;;;;;;;4.15;1.10;;;11.60;99.90;;;;;;5132653;27;20028;-76
2023/04/06 11:51:27;;;;;;;3.90;0.95;;;11.70;99.90;;;;;;5132955;27;20102;-76
2023/04/06 11:53:54;;;;;;;3.20;0.98;;;11.80;99.90;;;;;;5132902;27;20046;-75
2023/04/06 11:56:30;;;;;;;3.45;1.02;;;11.90;99.90;;;;;;5133347;27;20023;-75
2023/04/06 11:58:58;;;;;;;5.97;1.15;;;12.00;99.90;;;;;;5133376;27;20464;-75
2023/04/06 12:01:26;;;;;;;4.90;1.10;;;12.10;99.90;;;;;;5133256;27;20038;-78
2023/04/06 12:03:52;;;;;;;7.55;1.05;;;12.20;99.90;;;;;;5133567;27;20484;-75
2023/04/06 12:06:18;;;;;;;2.55;1.02;;;12.40;99.90;;;;;;5132990;27;20027;-76
2023/04/06 12:08:44;;;;;;;3.42;1.02;;;12.40;99.90;;;;;;5132773;27;20034;-75
2023/04/06 12:11:11;;;;;;;3.83;1.15;;;12.50;99.90;;;;;;5133659;27;20341;-76
2023/04/06 12:13:37;;;;;;;6.22;1.10;;;12.60;99.90;;;;;;5132090;27;20027;-76
2023/04/06 12:16:03;;;;;;;3.08;1.17;;;12.70;99.90;;;;;;5132993;27;20046;-76
2023/04/06 12:18:31;;;;;;;4.22;1.48;;;12.90;99.90;;;;;;5113764;27;20034;-76
2023/04/06 12:20:56;;;;;;;6.30;1.60;;;13.00;99.90;;;;;;5132657;27;20034;-76
2023/04/06 12:23:22;;;;;;;3.45;1.10;;;12.90;99.90;;;;;;5133224;27;20388;-75
2023/04/06 12:25:48;;;;;;;4.30;1.60;;;12.90;99.90;;;;;;5133544;27;20111;-75
2023/04/06 12:28:14;;;;;;;5.25;1.40;;;13.10;99.90;;;;;;5133853;27;20027;-75
2023/04/06 12:30:41;;;;;;;4.30;1.45;;;13.20;99.90;;;;;;5132868;27;20050;-76
2023/04/06 12:33:06;;;;;;;2.97;1.02;;;13.10;99.90;;;;;;5133472;27;20099;-75
2023/04/06 12:35:36;;;;;;;3.60;1.35;;;13.10;99.90;;;;;;5132661;27;20059;-76
2023/04/06 12:38:02;;;;;;;5.15;1.63;;;13.00;99.90;;;;;;5133256;27;20035;-75
2023/04/06 12:40:28;;;;;;;2.95;1.45;;;12.90;99.90;;;;;;5132869;27;20076;-79
2023/04/06 12:42:53;;;;;;;4.50;1.48;;;13.10;99.90;;;;;;5132521;27;20027;-76
2023/04/06 12:45:19;;;;;;;5.50;1.50;;;13.20;99.90;;;;;;5132686;27;20106;-75
2023/04/06 12:47:45;;;;;;;4.53;1.30;;;13.40;99.90;;;;;;5132161;27;20028;-75
2023/04/06 12:50:11;;;;;;;4.38;1.58;;;13.50;99.90;;;;;;5132953;27;20129;-75